createdAt,value
2018-05-01T00:02:23.645Z,0.70
2018-05-01T00:04:51.200Z,0.70
2018-05-01T00:07:18.767Z,0.80
2018-05-01T00:09:46.294Z,0.70
2018-05-01T00:12:14.601Z,0.80
2018-05-01T00:14:42.156Z,0.65
2018-05-01T00:17:09.696Z,0.70
2018-05-01T00:19:38.015Z,0.70
2018-05-01T00:22:05.579Z,0.60
2018-05-01T00:24:33.135Z,0.60
2018-05-01T00:27:00.680Z,0.73
2018-05-01T00:29:28.230Z,0.62
2018-05-01T00:31:55.800Z,0.55
2018-05-01T00:34:23.334Z,0.60
2018-05-01T00:36:51.644Z,0.70
2018-05-01T00:39:19.219Z,0.70
2018-05-01T00:41:46.760Z,0.68
2018-05-01T00:44:14.290Z,0.57
2018-05-01T00:46:42.618Z,0.60
2018-05-01T00:49:10.156Z,0.85
2018-05-01T00:51:37.752Z,0.70
2018-05-01T00:54:05.273Z,0.55
2018-05-01T00:56:32.829Z,0.60
2018-05-01T00:59:00.359Z,0.70
2018-05-01T01:01:27.922Z,0.65
2018-05-01T01:03:56.251Z,0.60
2018-05-01T01:06:23.784Z,0.70
2018-05-01T01:08:51.331Z,0.70
2018-05-01T01:11:18.876Z,0.60
2018-05-01T01:13:46.416Z,0.60
2018-05-01T01:16:14.047Z,0.65
2018-05-01T01:18:41.612Z,0.60
2018-05-01T01:21:09.152Z,0.55
2018-05-01T01:23:36.705Z,0.70
2018-05-01T01:26:04.259Z,0.60
2018-05-01T01:28:31.813Z,1.40
2018-05-01T01:31:00.140Z,0.73
2018-05-01T01:33:27.659Z,0.60
2018-05-01T01:35:54.721Z,0.60
2018-05-01T01:38:21.779Z,0.70
2018-05-01T01:40:48.816Z,0.62
2018-05-01T01:43:15.882Z,0.80
2018-05-01T01:45:42.923Z,0.60
2018-05-01T01:48:09.992Z,0.65
2018-05-01T01:50:37.044Z,0.60
2018-05-01T01:53:04.093Z,0.75
2018-05-01T01:55:31.163Z,0.60
2018-05-01T01:57:58.215Z,0.60
2018-05-01T02:00:25.274Z,0.90
2018-05-01T02:02:53.083Z,0.60
2018-05-01T02:05:20.149Z,0.70
2018-05-01T02:07:47.184Z,0.70
2018-05-01T02:10:14.236Z,0.65
2018-05-01T02:12:41.271Z,0.80
2018-05-01T02:15:08.311Z,0.60
2018-05-01T02:17:35.364Z,0.70
2018-05-01T02:20:02.402Z,0.70
2018-05-01T02:22:29.452Z,0.65
2018-05-01T02:24:56.511Z,0.80
2018-05-01T02:27:23.564Z,0.70
2018-05-01T02:29:50.616Z,0.75
2018-05-01T02:32:17.643Z,0.77
2018-05-01T02:34:44.737Z,0.80
2018-05-01T02:37:11.790Z,0.80
2018-05-01T02:39:38.864Z,0.90
2018-05-01T02:42:06.408Z,0.62
2018-05-01T02:44:33.459Z,0.70
2018-05-01T02:47:01.285Z,0.80
2018-05-01T02:49:28.336Z,0.90
2018-05-01T02:51:55.516Z,0.85
2018-05-01T02:54:22.582Z,0.70
2018-05-01T02:56:50.487Z,0.70
2018-05-01T02:59:17.471Z,0.70
2018-05-01T03:01:44.549Z,0.70
2018-05-01T03:04:12.345Z,1.00
2018-05-01T03:06:39.501Z,1.00
2018-05-01T03:09:06.551Z,1.02
2018-05-01T03:11:33.610Z,1.00
2018-05-01T03:14:00.662Z,1.00
2018-05-01T03:16:27.715Z,1.10
2018-05-01T03:18:54.756Z,1.10
2018-05-01T03:21:21.812Z,1.15
2018-05-01T03:23:48.863Z,0.90
2018-05-01T03:26:15.950Z,1.20
2018-05-01T03:28:43.857Z,1.10
2018-05-01T03:31:10.915Z,1.40
2018-05-01T03:33:37.953Z,1.02
2018-05-01T03:36:04.982Z,1.00
2018-05-01T03:38:32.042Z,1.20
2018-05-01T03:40:59.114Z,1.08
2018-05-01T03:43:26.180Z,1.15
2018-05-01T03:45:53.230Z,1.00
2018-05-01T03:48:20.290Z,1.35
2018-05-01T03:50:48.103Z,1.20
2018-05-01T03:53:15.166Z,1.20
2018-05-01T03:55:42.215Z,0.88
2018-05-01T03:58:09.272Z,1.10
2018-05-01T04:00:36.306Z,0.88
2018-05-01T04:03:03.363Z,1.10
2018-05-01T04:05:30.402Z,1.00
2018-05-01T04:07:57.460Z,0.98
2018-05-01T04:10:25.264Z,1.00
2018-05-01T04:12:52.322Z,1.02
2018-05-01T04:15:19.364Z,1.00
2018-05-01T04:17:46.492Z,0.95
2018-05-01T04:20:14.310Z,1.20
2018-05-01T04:22:41.359Z,1.00
2018-05-01T04:25:08.400Z,1.10
2018-05-01T04:27:35.463Z,1.05
2018-05-01T04:30:02.512Z,0.98
2018-05-01T04:32:29.561Z,0.90
2018-05-01T04:34:57.745Z,1.00
2018-05-01T04:37:24.799Z,0.90
2018-05-01T04:39:52.627Z,0.90
2018-05-01T04:42:19.682Z,0.98
2018-05-01T04:44:46.731Z,0.85
2018-05-01T04:47:13.787Z,1.35
2018-05-01T04:49:40.834Z,1.10
2018-05-01T04:52:07.883Z,1.00
2018-05-01T04:54:34.930Z,0.90
2018-05-01T04:57:02.004Z,0.90
2018-05-01T04:59:29.038Z,1.02
2018-05-01T05:01:56.103Z,1.20
2018-05-01T05:04:23.962Z,0.80
2018-05-01T05:06:51.791Z,0.85
2018-05-01T05:09:18.823Z,0.85
2018-05-01T05:11:45.879Z,0.82
2018-05-01T05:14:12.939Z,0.80
2018-05-01T05:16:39.991Z,1.00
2018-05-01T05:19:07.050Z,0.90
2018-05-01T05:21:34.107Z,0.80
2018-05-01T05:24:01.151Z,0.70
2018-05-01T05:26:28.186Z,0.77
2018-05-01T05:28:55.255Z,0.90
2018-05-01T05:31:22.295Z,0.77
2018-05-01T05:33:49.335Z,0.80
2018-05-01T05:36:16.405Z,0.70
2018-05-01T05:38:44.246Z,0.82
2018-05-01T05:41:11.382Z,0.95
2018-05-01T05:43:39.139Z,0.70
2018-05-01T05:46:06.195Z,1.12
2018-05-01T05:48:33.252Z,0.77
2018-05-01T05:51:00.326Z,0.90
2018-05-01T05:53:27.446Z,0.90
2018-05-01T05:55:54.513Z,0.80
2018-05-01T05:58:21.556Z,0.70
2018-05-01T06:00:48.629Z,0.75
2018-05-01T06:03:16.441Z,0.80
2018-05-01T06:05:43.511Z,0.95
2018-05-01T06:08:11.325Z,0.90
2018-05-01T06:10:38.356Z,1.00
2018-05-01T06:13:05.517Z,0.90
2018-05-01T06:15:32.551Z,0.80
2018-05-01T06:18:01.716Z,0.80
2018-05-01T06:20:28.784Z,1.00
2018-05-01T06:22:56.600Z,0.80
2018-05-01T06:25:23.652Z,0.80
2018-05-01T06:27:50.686Z,0.70
2018-05-01T06:30:17.752Z,1.10
2018-05-01T06:32:44.878Z,1.00
2018-05-01T06:35:12.663Z,1.00
2018-05-01T06:37:39.703Z,0.85
2018-05-01T06:40:06.752Z,0.90
2018-05-01T06:42:33.831Z,0.80
2018-05-01T06:45:00.886Z,0.95
2018-05-01T06:47:28.714Z,0.90
2018-05-01T06:49:55.803Z,1.10
2018-05-01T06:52:22.852Z,0.90
2018-05-01T06:54:50.651Z,0.90
2018-05-01T06:57:17.711Z,0.90
2018-05-01T06:59:44.764Z,0.80
2018-05-01T07:02:11.807Z,0.90
2018-05-01T07:04:38.933Z,0.80
2018-05-01T07:07:05.938Z,0.75
2018-05-01T07:09:32.992Z,0.80
2018-05-01T07:12:00.031Z,0.65
2018-05-01T07:14:27.084Z,1.00
2018-05-01T07:16:54.121Z,0.80
2018-05-01T07:19:21.178Z,0.90
2018-05-01T07:21:48.245Z,0.70
2018-05-01T07:24:16.089Z,0.80
2018-05-01T07:26:43.145Z,1.00
2018-05-01T07:29:10.193Z,0.88
2018-05-01T07:31:37.260Z,0.80
2018-05-01T07:34:05.075Z,0.60
2018-05-01T07:36:32.116Z,0.70
2018-05-01T07:38:59.183Z,0.70
2018-05-01T07:41:26.309Z,0.70
2018-05-01T07:43:53.307Z,0.82
2018-05-01T07:46:20.388Z,0.80
2018-05-01T07:48:47.439Z,0.70
2018-05-01T07:51:14.491Z,0.70
2018-05-01T07:53:41.574Z,0.70
2018-05-01T07:56:08.617Z,0.80
2018-05-01T07:58:35.690Z,0.70
2018-05-01T08:01:02.739Z,0.77
2018-05-01T08:03:29.844Z,0.80
2018-05-01T08:05:56.914Z,0.60
2018-05-01T08:08:23.955Z,0.80
2018-05-01T08:10:51.016Z,0.70
2018-05-01T08:13:18.060Z,0.60
2018-05-01T08:15:45.153Z,0.60
2018-05-01T08:18:12.972Z,0.70
2018-05-01T08:20:40.055Z,0.70
2018-05-01T08:23:07.886Z,0.70
2018-05-01T08:25:34.959Z,0.60
2018-05-01T08:28:02.019Z,0.70
2018-05-01T08:30:30.473Z,0.77
2018-05-01T08:32:57.523Z,0.60
2018-05-01T08:35:24.645Z,0.62
2018-05-01T08:37:51.705Z,0.70
2018-05-01T08:40:18.777Z,0.60
2018-05-01T08:42:45.868Z,0.70
2018-05-01T08:45:12.921Z,0.70
2018-05-01T08:47:40.029Z,0.80
2018-05-01T08:50:07.098Z,0.80
2018-05-01T08:52:34.957Z,0.80
2018-05-01T08:55:02.770Z,0.60
2018-05-01T08:57:29.834Z,0.80
2018-05-01T08:59:56.887Z,0.60
2018-05-01T09:02:23.939Z,0.80
2018-05-01T09:04:51.022Z,0.85
2018-05-01T09:07:18.853Z,0.65
2018-05-01T09:09:46.908Z,0.90
2018-05-01T09:12:13.987Z,0.70
2018-05-01T09:14:41.051Z,0.70
2018-05-01T09:17:08.943Z,0.80
2018-05-01T09:19:36.026Z,0.80
2018-05-01T09:22:03.099Z,0.90
2018-05-01T09:24:30.166Z,0.80
2018-05-01T09:26:57.991Z,0.77
2018-05-01T09:29:25.075Z,0.80
2018-05-01T09:31:52.928Z,0.90
2018-05-01T09:34:20.003Z,1.20
2018-05-01T09:36:47.882Z,0.80
2018-05-01T09:39:14.929Z,0.60
2018-05-01T09:41:42.023Z,0.80
2018-05-01T09:44:09.111Z,0.80
2018-05-01T09:46:37.168Z,0.67
2018-05-01T09:49:04.284Z,0.70
2018-05-01T09:51:31.336Z,0.80
2018-05-01T09:53:58.902Z,0.70
2018-05-01T09:56:26.467Z,0.80
2018-05-01T09:58:54.027Z,0.90
2018-05-01T10:01:21.564Z,0.90
2018-05-01T10:03:49.114Z,1.40
2018-05-01T10:06:16.671Z,0.83
2018-05-01T10:08:44.245Z,0.73
2018-05-01T10:11:11.814Z,0.80
2018-05-01T10:13:39.351Z,0.80
2018-05-01T10:16:06.932Z,0.70
2018-05-01T10:18:34.481Z,0.70
2018-05-01T10:21:02.037Z,0.80
2018-05-01T10:23:29.588Z,0.80
2018-05-01T10:25:57.155Z,0.70
2018-05-01T10:28:24.708Z,0.70
2018-05-01T10:30:52.259Z,1.20
2018-05-01T10:33:20.604Z,0.90
2018-05-01T10:35:48.155Z,0.80
2018-05-01T10:38:15.732Z,0.70
2018-05-01T10:40:43.287Z,0.60
2018-05-01T10:43:10.857Z,0.80
2018-05-01T10:45:39.191Z,0.70
2018-05-01T10:48:07.203Z,0.80
2018-05-01T10:50:34.760Z,1.70
2018-05-01T10:53:02.335Z,1.00
2018-05-01T10:55:30.646Z,0.90
2018-05-01T10:57:58.195Z,0.60
2018-05-01T11:00:25.749Z,0.70
2018-05-01T11:02:53.300Z,0.70
2018-05-01T11:05:21.615Z,0.70
2018-05-01T11:07:49.186Z,0.70
2018-05-01T11:10:16.734Z,0.77
2018-05-01T11:12:44.502Z,1.20
2018-05-01T11:15:12.139Z,0.70
2018-05-01T11:17:39.692Z,0.77
2018-05-01T11:20:07.261Z,1.13
2018-05-01T11:22:34.791Z,0.70
2018-05-01T11:25:03.112Z,0.80
2018-05-01T11:27:30.647Z,0.70
2018-05-01T11:29:58.236Z,0.60
2018-05-01T11:32:25.781Z,1.13
2018-05-01T11:34:53.362Z,0.83
2018-05-01T11:37:20.900Z,0.80
2018-05-01T11:39:48.444Z,0.70
2018-05-01T11:42:16.007Z,1.00
2018-05-01T11:44:43.554Z,0.90
2018-05-01T11:47:11.970Z,0.70
2018-05-01T11:49:39.515Z,0.70
2018-05-01T11:52:07.142Z,0.80
2018-05-01T11:54:34.691Z,1.30
2018-05-01T11:57:02.234Z,0.80
2018-05-01T11:59:29.769Z,1.00
2018-05-01T12:01:57.348Z,0.60
2018-05-01T12:04:25.039Z,0.90
2018-05-01T12:06:52.624Z,1.93
2018-05-01T12:09:21.745Z,1.00
2018-05-01T12:11:49.275Z,0.70
2018-05-01T12:14:17.614Z,0.90
2018-05-01T12:16:45.160Z,1.00
2018-05-01T12:19:12.728Z,1.63
2018-05-01T12:21:40.361Z,0.90
2018-05-01T12:24:07.935Z,1.70
2018-05-01T12:26:35.735Z,1.00
2018-05-01T12:29:03.278Z,0.70
2018-05-01T12:31:30.846Z,0.67
2018-05-01T12:33:58.400Z,0.80
2018-05-01T12:36:25.960Z,0.80
2018-05-01T12:38:53.519Z,0.70
2018-05-01T12:41:21.084Z,0.90
2018-05-01T12:43:48.659Z,1.17
2018-05-01T12:46:17.128Z,0.60
2018-05-01T12:48:44.682Z,0.70
2018-05-01T12:51:12.260Z,0.80
2018-05-01T12:53:39.960Z,0.70
2018-05-01T12:56:07.502Z,0.70
2018-05-01T12:58:35.818Z,0.70
2018-05-01T13:01:04.155Z,4.10
2018-05-01T13:03:32.502Z,4.10
2018-05-01T13:06:00.052Z,1.50
2018-05-01T13:08:27.615Z,0.80
2018-05-01T13:10:55.172Z,0.87
2018-05-01T13:13:22.722Z,0.60
2018-05-01T13:15:50.266Z,0.60
2018-05-01T13:18:17.839Z,0.70
2018-05-01T13:20:45.412Z,4.00
2018-05-01T13:23:13.058Z,0.80
2018-05-01T13:25:40.680Z,1.17
2018-05-01T13:28:09.028Z,0.60
2018-05-01T13:30:36.629Z,0.70
2018-05-01T13:33:04.184Z,0.77
2018-05-01T13:35:32.475Z,0.80
2018-05-01T13:38:00.144Z,1.00
2018-05-01T13:40:27.566Z,0.60
2018-05-01T13:42:55.149Z,0.60
2018-05-01T13:45:22.718Z,0.90
2018-05-01T13:47:50.283Z,0.70
2018-05-01T13:50:17.817Z,0.60
2018-05-01T13:52:46.181Z,0.70
2018-05-01T13:55:13.762Z,0.77
2018-05-01T13:57:42.086Z,2.13
2018-05-01T14:00:09.624Z,0.70
2018-05-01T14:02:37.163Z,1.20
2018-05-01T14:05:04.730Z,0.53
2018-05-01T14:07:32.282Z,0.60
2018-05-01T14:10:00.608Z,0.80
2018-05-01T14:12:28.187Z,0.70
2018-05-01T14:14:55.752Z,0.60
2018-05-01T14:17:23.287Z,0.70
2018-05-01T14:19:50.847Z,1.13
2018-05-01T14:22:18.406Z,0.80
2018-05-01T14:24:45.966Z,1.30
2018-05-01T14:27:13.516Z,1.17
2018-05-01T14:29:41.043Z,1.17
2018-05-01T14:32:09.383Z,0.80
2018-05-01T14:34:36.932Z,0.80
2018-05-01T14:37:04.503Z,0.70
2018-05-01T14:39:32.057Z,0.60
2018-05-01T14:41:59.690Z,1.20
2018-05-01T14:44:27.168Z,0.80
2018-05-01T14:46:55.682Z,0.83
2018-05-01T14:49:24.114Z,1.27
2018-05-01T14:51:51.678Z,0.70
2018-05-01T14:54:19.225Z,0.60
2018-05-01T14:56:46.794Z,0.73
2018-05-01T14:59:14.980Z,0.70
2018-05-01T15:01:43.341Z,0.80
2018-05-01T15:04:10.916Z,0.90
2018-05-01T15:06:38.553Z,1.00
2018-05-01T15:09:06.113Z,0.70
2018-05-01T15:11:33.704Z,1.10
2018-05-01T15:14:01.274Z,0.80
2018-05-01T15:16:28.837Z,0.80
2018-05-01T15:18:56.415Z,0.73
2018-05-01T15:21:23.953Z,0.80
2018-05-01T15:23:51.512Z,0.70
2018-05-01T15:26:19.519Z,0.90
2018-05-01T15:28:47.813Z,0.90
2018-05-01T15:31:15.442Z,0.70
2018-05-01T15:33:42.934Z,0.70
2018-05-01T15:36:10.504Z,0.90
2018-05-01T15:38:38.082Z,0.83
2018-05-01T15:41:05.638Z,0.70
2018-05-01T15:43:33.383Z,0.73
2018-05-01T15:46:00.954Z,0.70
2018-05-01T15:48:28.530Z,0.90
2018-05-01T15:50:56.083Z,0.93
2018-05-01T15:53:23.614Z,0.70
2018-05-01T15:55:51.922Z,0.70
2018-05-01T15:58:19.471Z,0.90
2018-05-01T16:00:47.083Z,0.83
2018-05-01T16:03:14.607Z,0.70
2018-05-01T16:05:42.869Z,0.60
2018-05-01T16:08:10.406Z,0.70
2018-05-01T16:10:37.971Z,0.67
2018-05-01T16:13:06.282Z,0.70
2018-05-01T16:15:33.840Z,0.60
2018-05-01T16:18:01.411Z,0.70
2018-05-01T16:20:29.794Z,0.70
2018-05-01T16:22:57.354Z,0.70
2018-05-01T16:25:24.907Z,0.80
2018-05-01T16:27:52.483Z,0.73
2018-05-01T16:30:20.036Z,0.80
2018-05-01T16:32:47.628Z,0.70
2018-05-01T16:35:15.953Z,1.13
2018-05-01T16:37:43.521Z,0.87
2018-05-01T16:40:11.670Z,0.70
2018-05-01T16:42:39.963Z,0.70
2018-05-01T16:45:07.560Z,1.10
2018-05-01T16:47:35.103Z,0.90
2018-05-01T16:50:02.677Z,0.73
2018-05-01T16:52:30.308Z,0.80
2018-05-01T16:54:57.863Z,0.90
2018-05-01T16:57:25.413Z,1.00
2018-05-01T16:59:52.989Z,0.80
2018-05-01T17:02:20.568Z,0.87
2018-05-01T17:04:48.154Z,0.90
2018-05-01T17:07:16.477Z,1.23
2018-05-01T17:09:44.024Z,1.40
2018-05-01T17:12:11.579Z,0.90
2018-05-01T17:14:39.150Z,0.80
2018-05-01T17:17:06.699Z,0.87
2018-05-01T17:19:34.250Z,0.70
2018-05-01T17:22:02.607Z,0.73
2018-05-01T17:24:30.179Z,1.13
2018-05-01T17:26:58.523Z,0.90
2018-05-01T17:29:26.078Z,0.80
2018-05-01T17:31:53.686Z,1.30
2018-05-01T17:34:21.252Z,1.20
2018-05-01T17:36:49.583Z,0.90
2018-05-01T17:39:17.137Z,0.90
2018-05-01T17:41:44.899Z,0.60
2018-05-01T17:44:12.444Z,1.17
2018-05-01T17:46:40.417Z,0.90
2018-05-01T17:49:07.959Z,0.80
2018-05-01T17:51:35.661Z,0.90
2018-05-01T17:54:03.231Z,1.00
2018-05-01T17:56:30.783Z,1.10
2018-05-01T17:58:58.374Z,0.90
2018-05-01T18:01:27.304Z,1.87
2018-05-01T18:03:54.854Z,2.15
2018-05-01T18:06:22.413Z,1.50
2018-05-01T18:08:49.983Z,1.55
2018-05-01T18:11:17.552Z,1.15
2018-05-01T18:13:45.214Z,1.40
2018-05-01T18:16:12.807Z,1.90
2018-05-01T18:18:40.379Z,1.30
2018-05-01T18:21:08.734Z,1.10
2018-05-01T18:23:36.307Z,0.80
2018-05-01T18:26:03.877Z,1.00
2018-05-01T18:28:31.425Z,0.80
2018-05-01T18:30:59.801Z,1.12
2018-05-01T18:33:27.499Z,0.80
2018-05-01T18:35:55.792Z,2.17
2018-05-01T18:38:27.356Z,2.47
2018-05-01T18:40:54.927Z,1.92
2018-05-01T18:43:22.527Z,1.60
2018-05-01T18:45:50.844Z,1.10
2018-05-01T18:48:18.835Z,1.00
2018-05-01T18:50:47.027Z,1.00
2018-05-01T18:53:15.277Z,1.25
2018-05-01T18:55:42.854Z,1.20
2018-05-01T18:58:10.422Z,1.58
2018-05-01T19:00:37.974Z,1.33
2018-05-01T19:03:05.540Z,1.25
2018-05-01T19:05:33.114Z,1.27
2018-05-01T19:08:00.689Z,1.10
2018-05-01T19:10:29.172Z,1.00
2018-05-01T19:12:56.680Z,0.90
2018-05-01T19:15:24.292Z,1.10
2018-05-01T19:17:52.615Z,1.27
2018-05-01T19:20:20.189Z,1.10
2018-05-01T19:22:47.748Z,1.40
2018-05-01T19:25:15.304Z,1.40
2018-05-01T19:27:42.888Z,1.45
2018-05-01T19:30:10.441Z,1.30
2018-05-01T19:32:38.022Z,1.20
2018-05-01T19:35:06.543Z,1.12
2018-05-01T19:37:34.906Z,1.50
2018-05-01T19:40:03.994Z,1.30
2018-05-01T19:42:31.552Z,1.40
2018-05-01T19:44:59.191Z,1.40
2018-05-01T19:47:26.774Z,1.50
2018-05-01T19:49:55.072Z,1.42
2018-05-01T19:52:22.638Z,1.60
2018-05-01T19:54:50.195Z,1.25
2018-05-01T19:57:18.915Z,1.20
2018-05-01T19:59:46.472Z,1.30
2018-05-01T20:02:14.029Z,1.62
2018-05-01T20:04:41.580Z,1.65
2018-05-01T20:07:09.266Z,1.42
2018-05-01T20:09:36.815Z,1.50
2018-05-01T20:12:04.367Z,1.40
2018-05-01T20:14:31.935Z,1.85
2018-05-01T20:16:59.494Z,1.40
2018-05-01T20:19:27.024Z,1.60
2018-05-01T20:21:55.348Z,1.98
2018-05-01T20:24:23.618Z,1.70
2018-05-01T20:26:51.194Z,1.70
2018-05-01T20:29:18.729Z,1.80
2018-05-01T20:31:47.215Z,1.55
2018-05-01T20:34:14.791Z,1.73
2018-05-01T20:36:42.343Z,1.52
2018-05-01T20:39:09.905Z,1.80
2018-05-01T20:41:37.499Z,1.40
2018-05-01T20:44:05.067Z,1.58
2018-05-01T20:46:32.684Z,3.30
2018-05-01T20:49:00.206Z,2.67
2018-05-01T20:51:27.798Z,3.25
2018-05-01T20:53:55.333Z,3.03
2018-05-01T20:56:22.935Z,2.70
2018-05-01T20:58:50.469Z,2.80
2018-05-01T21:01:17.995Z,3.50
2018-05-01T21:03:46.343Z,4.00
2018-05-01T21:06:13.975Z,2.80
2018-05-01T21:08:41.519Z,2.35
2018-05-01T21:11:09.078Z,2.30
2018-05-01T21:13:36.647Z,2.22
2018-05-01T21:16:04.177Z,2.10
2018-05-01T21:18:32.485Z,1.85
2018-05-01T21:21:00.128Z,1.95
2018-05-01T21:23:27.691Z,1.70
2018-05-01T21:25:55.239Z,2.25
2018-05-01T21:28:23.538Z,1.90
2018-05-01T21:30:51.098Z,1.77
2018-05-01T21:33:18.684Z,1.90
2018-05-01T21:35:46.260Z,1.48
2018-05-01T21:38:14.923Z,1.60
2018-05-01T21:40:42.582Z,1.80
2018-05-01T21:43:10.128Z,1.85
2018-05-01T21:45:37.671Z,1.60
2018-05-01T21:48:05.258Z,1.90
2018-05-01T21:50:32.811Z,1.80
2018-05-01T21:53:00.353Z,1.77
2018-05-01T21:55:27.913Z,1.52
2018-05-01T21:57:56.259Z,1.85
2018-05-01T22:00:23.788Z,1.98
2018-05-01T22:02:51.359Z,1.90
2018-05-01T22:05:19.024Z,1.75
2018-05-01T22:07:46.575Z,1.87
2018-05-01T22:10:14.116Z,1.48
2018-05-01T22:12:41.675Z,1.70
2018-05-01T22:15:09.215Z,1.80
2018-05-01T22:17:37.619Z,1.80
2018-05-01T22:20:05.179Z,1.83
2018-05-01T22:22:32.702Z,1.80
2018-05-01T22:25:01.013Z,2.00
2018-05-01T22:27:28.550Z,1.60
2018-05-01T22:29:56.375Z,1.60
2018-05-01T22:32:23.898Z,2.20
2018-05-01T22:34:51.436Z,1.90
2018-05-01T22:37:19.760Z,1.50
2018-05-01T22:39:47.404Z,1.95
2018-05-01T22:42:14.957Z,1.87
2018-05-01T22:44:42.524Z,1.80
2018-05-01T22:47:10.067Z,1.80
2018-05-01T22:49:37.612Z,1.83
2018-05-01T22:52:05.928Z,2.25
2018-05-01T22:54:33.464Z,1.87
2018-05-01T22:57:00.996Z,1.60
2018-05-01T22:59:29.329Z,1.80
2018-05-01T23:01:56.869Z,2.22
2018-05-01T23:04:24.427Z,1.80
2018-05-01T23:06:51.982Z,2.10
2018-05-01T23:09:19.535Z,1.60
2018-05-01T23:11:47.061Z,2.20
2018-05-01T23:14:14.612Z,2.20
2018-05-01T23:16:42.148Z,1.98
2018-05-01T23:19:09.696Z,1.95
2018-05-01T23:21:37.257Z,2.37
2018-05-01T23:24:04.815Z,2.05
2018-05-01T23:26:32.348Z,1.98
2018-05-01T23:29:00.935Z,1.90
2018-05-01T23:31:28.467Z,1.70
2018-05-01T23:33:56.791Z,2.60
2018-05-01T23:36:24.353Z,2.25
2018-05-01T23:38:51.900Z,2.28
2018-05-01T23:41:19.437Z,2.58
2018-05-01T23:43:47.731Z,2.90
2018-05-01T23:46:15.298Z,2.97
2018-05-01T23:48:42.834Z,2.40
2018-05-01T23:51:11.146Z,2.83
2018-05-01T23:53:38.675Z,3.03
2018-05-01T23:56:06.966Z,2.83
2018-05-01T23:58:34.512Z,2.50
